createdAt,value
2018-07-26T00:02:19.545Z,73.17
2018-07-26T00:04:50.111Z,73.03
2018-07-26T00:07:21.577Z,72.79
2018-07-26T00:09:52.021Z,74.39
2018-07-26T00:12:24.084Z,74.15
2018-07-26T00:15:26.974Z,75.17
2018-07-26T00:17:58.616Z,76.27
2018-07-26T00:20:28.848Z,76.76
2018-07-26T00:23:03.931Z,77.94
2018-07-26T00:25:36.688Z,77.82
2018-07-26T00:28:11.740Z,77.64
2018-07-26T00:30:41.707Z,78.14
2018-07-26T00:34:01.341Z,78.11
2018-07-26T00:36:32.275Z,79.57
2018-07-26T00:39:02.256Z,81.61
2018-07-26T00:41:57.254Z,81.49
2018-07-26T00:44:27.772Z,82.83
2018-07-26T00:47:00.862Z,80.94
2018-07-26T00:49:38.730Z,83.33
2018-07-26T00:52:09.296Z,85.11
2018-07-26T00:54:41.191Z,83.79
2018-07-26T00:57:12.402Z,83.09
2018-07-26T00:59:43.090Z,82.51
2018-07-26T01:02:13.203Z,81.97
2018-07-26T01:04:43.252Z,82.62
2018-07-26T01:07:13.481Z,83.53
2018-07-26T01:09:43.564Z,84.82
2018-07-26T01:15:40.378Z,82.39
2018-07-26T01:24:18.558Z,85.16
2018-07-26T01:26:48.600Z,86.99
2018-07-26T01:29:20.835Z,89.26
2018-07-26T01:31:54.479Z,90.09
2018-07-26T01:34:25.385Z,90.92
2018-07-26T01:36:55.734Z,90.75
2018-07-26T01:39:25.766Z,88.32
2018-07-26T01:41:56.048Z,88.36
2018-07-26T01:45:08.102Z,88.81
2018-07-26T01:48:30.943Z,88.98
2018-07-26T01:51:04.970Z,88.01
2018-07-26T01:53:35.116Z,88.64
2018-07-26T01:56:05.153Z,87.77
2018-07-26T01:58:35.825Z,88.41
2018-07-26T02:01:10.293Z,88.88
2018-07-26T02:03:40.725Z,89.31
2018-07-26T02:06:41.188Z,88.04
2018-07-26T02:09:11.931Z,87.44
2018-07-26T02:11:41.949Z,87.60
2018-07-26T02:14:16.946Z,87.77
2018-07-26T02:16:52.661Z,87.61
2018-07-26T02:22:43.405Z,91.05
2018-07-26T02:25:16.970Z,91.07
2018-07-26T02:27:54.282Z,91.74
2018-07-26T02:30:26.627Z,93.51
2018-07-26T02:36:03.215Z,93.39
2018-07-26T02:38:34.273Z,92.89
2018-07-26T02:41:04.379Z,93.14
2018-07-26T02:43:34.707Z,91.53
2018-07-26T02:46:09.586Z,91.56
2018-07-26T02:48:39.608Z,89.10
2018-07-26T02:51:10.104Z,87.61
2018-07-26T02:53:40.187Z,88.83
2018-07-26T02:56:16.374Z,90.17
2018-07-26T02:58:46.384Z,90.67
2018-07-26T03:01:16.407Z,91.89
2018-07-26T03:03:46.475Z,92.82
2018-07-26T03:06:16.481Z,91.76
2018-07-26T03:08:46.510Z,92.10
2018-07-26T03:11:16.495Z,93.13
2018-07-26T03:13:46.673Z,93.76
2018-07-26T03:16:16.660Z,95.04
2018-07-26T03:18:47.058Z,94.82
2018-07-26T03:21:17.428Z,94.42
2018-07-26T03:23:47.483Z,93.60
2018-07-26T03:26:17.439Z,93.40
2018-07-26T03:28:47.397Z,95.03
2018-07-26T03:31:17.377Z,95.75
2018-07-26T03:33:47.374Z,95.77
2018-07-26T03:36:17.311Z,94.46
2018-07-26T03:38:47.220Z,96.36
2018-07-26T03:41:17.137Z,97.35
2018-07-26T03:43:47.214Z,96.42
2018-07-26T03:46:18.227Z,96.44
2018-07-26T03:48:48.176Z,95.62
2018-07-26T03:51:18.271Z,94.81
2018-07-26T03:53:48.212Z,94.68
2018-07-26T03:56:18.134Z,96.09
2018-07-26T03:58:48.391Z,96.37
2018-07-26T04:01:18.347Z,95.92
2018-07-26T04:03:48.389Z,95.76
2018-07-26T04:06:18.285Z,94.67
2018-07-26T04:08:48.321Z,94.59
2018-07-26T04:11:18.269Z,93.34
2018-07-26T04:13:48.237Z,93.20
2018-07-26T04:16:18.165Z,92.81
2018-07-26T04:18:48.160Z,93.00
2018-07-26T04:21:18.249Z,92.23
2018-07-26T04:23:48.213Z,92.48
2018-07-26T04:26:18.071Z,90.66
2018-07-26T04:28:48.128Z,89.61
2018-07-26T04:31:18.035Z,88.51
2018-07-26T04:33:47.964Z,87.04
2018-07-26T04:36:18.169Z,86.37
2018-07-26T04:38:48.099Z,85.37
2018-07-26T04:41:18.047Z,84.68
2018-07-26T04:43:48.066Z,83.99
2018-07-26T04:46:18.280Z,81.77
2018-07-26T04:48:48.555Z,80.05
2018-07-26T04:51:18.433Z,79.23
2018-07-26T04:53:48.515Z,77.74
2018-07-26T04:56:18.390Z,75.61
2018-07-26T04:58:48.342Z,74.42
2018-07-26T05:01:18.315Z,74.38
2018-07-26T05:03:48.349Z,73.79
2018-07-26T05:06:18.254Z,72.44
2018-07-26T05:08:48.465Z,70.37
2018-07-26T05:11:18.384Z,68.69
2018-07-26T05:13:48.470Z,67.56
2018-07-26T05:16:18.405Z,68.68
2018-07-26T05:18:48.351Z,69.15
2018-07-26T05:21:18.285Z,67.79
2018-07-26T05:23:48.301Z,65.94
2018-07-26T05:26:18.142Z,65.21
2018-07-26T05:28:48.214Z,66.18
2018-07-26T05:31:18.153Z,67.63
2018-07-26T05:33:48.074Z,67.25
2018-07-26T05:36:17.951Z,67.59
2018-07-26T05:38:47.891Z,67.09
2018-07-26T05:41:18.052Z,65.55
2018-07-26T05:43:47.971Z,63.72
2018-07-26T05:46:18.597Z,61.41
2018-07-26T05:48:48.497Z,60.37
2018-07-26T05:51:18.413Z,60.78
2018-07-26T05:53:48.718Z,60.25
2018-07-26T05:56:18.673Z,60.83
2018-07-26T05:58:48.594Z,60.55
2018-07-26T06:01:18.656Z,58.84
2018-07-26T06:03:49.278Z,58.28
2018-07-26T06:06:19.330Z,59.10
2018-07-26T06:08:49.253Z,56.85
2018-07-26T06:11:19.269Z,56.60
2018-07-26T06:13:49.211Z,55.61
2018-07-26T06:16:19.399Z,55.29
2018-07-26T06:18:49.286Z,54.58
2018-07-26T06:21:19.300Z,55.41
2018-07-26T06:23:49.217Z,54.38
2018-07-26T06:26:21.572Z,54.74
2018-07-26T06:28:52.754Z,54.00
2018-07-26T06:31:22.859Z,54.45
2018-07-26T06:33:52.801Z,54.33
2018-07-26T06:36:23.399Z,52.71
2018-07-26T06:38:53.326Z,53.42
2018-07-26T06:41:23.589Z,53.91
2018-07-26T06:43:53.746Z,53.14
2018-07-26T06:46:23.741Z,53.10
2018-07-26T06:48:55.110Z,52.49
2018-07-26T06:51:25.886Z,52.90
2018-07-26T06:53:55.790Z,52.98
2018-07-26T06:56:25.774Z,50.50
2018-07-26T06:58:56.082Z,49.59
2018-07-26T07:01:26.160Z,48.22
2018-07-26T07:03:56.119Z,48.32
2018-07-26T07:06:26.056Z,48.20
2018-07-26T07:08:56.347Z,47.77
2018-07-26T07:11:26.387Z,47.78
2018-07-26T07:13:56.373Z,46.47
2018-07-26T07:16:26.281Z,46.52
2018-07-26T07:18:56.265Z,44.91
2018-07-26T07:21:26.167Z,44.45
2018-07-26T07:23:57.117Z,45.57
2018-07-26T07:26:27.066Z,45.18
2018-07-26T07:28:57.127Z,45.38
2018-07-26T07:31:26.986Z,44.75
2018-07-26T07:33:56.927Z,44.08
2018-07-26T07:36:26.971Z,44.43
2018-07-26T07:38:56.831Z,44.00
2018-07-26T07:41:27.195Z,43.57
2018-07-26T07:43:57.071Z,43.45
2018-07-26T07:46:27.048Z,39.95
2018-07-26T07:48:56.983Z,42.40
2018-07-26T07:51:26.954Z,42.19
2018-07-26T07:53:57.207Z,41.78
2018-07-26T07:56:27.144Z,41.23
2018-07-26T07:58:57.146Z,41.69
2018-07-26T08:01:27.083Z,42.26
2018-07-26T08:03:57.225Z,44.24
2018-07-26T08:06:27.161Z,42.35
2018-07-26T08:08:57.188Z,39.68
2018-07-26T08:11:27.102Z,38.25
2018-07-26T08:13:57.043Z,38.34
2018-07-26T08:16:30.016Z,38.41
2018-07-26T08:19:00.649Z,37.63
2018-07-26T08:21:30.630Z,36.12
2018-07-26T08:24:00.860Z,35.97
2018-07-26T08:26:31.189Z,33.91
2018-07-26T08:29:01.073Z,34.34
2018-07-26T08:31:43.062Z,32.55
2018-07-26T08:34:21.439Z,34.32
2018-07-26T08:36:51.637Z,34.66
2018-07-26T08:39:21.630Z,33.74
2018-07-26T08:41:51.961Z,34.74
2018-07-26T08:44:23.289Z,34.17
2018-07-26T08:46:53.257Z,36.22
2018-07-26T08:49:23.160Z,34.79
2018-07-26T08:51:53.002Z,31.87
2018-07-26T08:54:23.020Z,29.00
2018-07-26T08:56:52.992Z,27.54
2018-07-26T08:59:23.127Z,30.21
2018-07-26T09:01:53.214Z,33.79
2018-07-26T09:04:23.281Z,32.57
2018-07-26T09:06:53.221Z,33.36
2018-07-26T09:09:24.898Z,34.16
2018-07-26T09:11:54.911Z,36.44
2018-07-26T09:14:24.954Z,35.78
2018-07-26T09:16:55.207Z,34.33
2018-07-26T09:19:25.175Z,31.98
2018-07-26T09:21:55.397Z,34.58
2018-07-26T09:24:25.375Z,33.49
2018-07-26T09:27:08.773Z,34.36
2018-07-26T09:29:38.742Z,34.06
2018-07-26T09:32:09.406Z,33.68
2018-07-26T09:34:39.344Z,33.64
2018-07-26T09:37:09.698Z,31.76
2018-07-26T09:39:39.742Z,30.65
2018-07-26T09:42:10.861Z,29.04
2018-07-26T09:44:40.774Z,29.74
2018-07-26T09:47:10.995Z,30.81
2018-07-26T09:49:41.055Z,30.21
2018-07-26T09:52:10.942Z,29.42
2018-07-26T09:54:40.843Z,29.77
2018-07-26T09:57:11.734Z,30.04
2018-07-26T09:59:41.802Z,29.98
2018-07-26T10:02:11.877Z,28.58
2018-07-26T10:04:41.763Z,27.42
2018-07-26T10:07:11.764Z,26.88
2018-07-26T10:09:41.628Z,27.06
2018-07-26T10:12:11.601Z,25.59
2018-07-26T10:14:41.461Z,26.39
2018-07-26T10:17:11.476Z,26.42
2018-07-26T10:19:41.375Z,26.67
2018-07-26T10:22:11.302Z,27.10
2018-07-26T10:24:41.273Z,27.64
2018-07-26T10:27:11.189Z,27.29
2018-07-26T10:29:41.093Z,27.01
2018-07-26T10:32:11.786Z,25.79
2018-07-26T10:34:41.707Z,26.86
2018-07-26T10:37:11.704Z,26.43
2018-07-26T10:39:42.314Z,27.31
2018-07-26T10:42:12.281Z,25.11
2018-07-26T10:44:42.157Z,27.30
2018-07-26T10:47:12.290Z,27.13
2018-07-26T10:49:42.183Z,27.07
2018-07-26T10:52:12.101Z,28.77
2018-07-26T10:54:42.026Z,29.06
2018-07-26T10:57:12.157Z,29.22
2018-07-26T10:59:42.149Z,29.31
2018-07-26T11:02:12.385Z,27.35
2018-07-26T11:04:42.996Z,29.15
2018-07-26T11:07:13.117Z,27.06
2018-07-26T11:09:45.471Z,29.87
2018-07-26T11:12:15.401Z,31.04
2018-07-26T11:14:45.658Z,30.00
2018-07-26T11:17:15.346Z,28.59
2018-07-26T11:19:45.350Z,30.29
2018-07-26T11:22:15.481Z,28.35
2018-07-26T11:24:49.422Z,29.06
2018-07-26T11:27:19.401Z,27.53
2018-07-26T11:29:49.560Z,28.82
2018-07-26T11:32:19.894Z,25.34
2018-07-26T11:34:50.446Z,27.06
2018-07-26T11:37:21.227Z,26.06
2018-07-26T11:40:02.790Z,25.29
2018-07-26T11:42:32.932Z,25.79
2018-07-26T11:45:03.166Z,25.86
2018-07-26T11:47:33.182Z,27.92
2018-07-26T11:50:03.197Z,27.67
2018-07-26T11:52:33.297Z,26.39
2018-07-26T11:55:03.238Z,29.81
2018-07-26T11:57:33.374Z,28.23
2018-07-26T12:00:04.188Z,29.60
2018-07-26T12:02:46.884Z,27.38
2018-07-26T12:05:20.795Z,29.39
2018-07-26T12:07:50.901Z,28.63
2018-07-26T12:10:23.887Z,28.74
2018-07-26T12:12:54.106Z,27.90
2018-07-26T12:15:24.063Z,29.04
2018-07-26T12:17:54.286Z,29.78
2018-07-26T12:20:24.331Z,29.85
2018-07-26T12:22:54.321Z,28.32
2018-07-26T12:25:24.193Z,28.39
2018-07-26T12:27:54.357Z,28.71
2018-07-26T12:30:24.485Z,28.95
2018-07-26T12:32:54.545Z,28.30
2018-07-26T12:35:24.535Z,27.40
2018-07-26T12:37:54.505Z,26.41
2018-07-26T12:40:25.346Z,26.09
2018-07-26T12:42:55.289Z,23.80
2018-07-26T12:45:26.226Z,24.35
2018-07-26T12:47:56.302Z,24.85
2018-07-26T12:50:26.259Z,24.50
2018-07-26T12:52:57.700Z,24.01
2018-07-26T12:55:28.614Z,25.91
2018-07-26T12:57:59.087Z,25.35
2018-07-26T13:00:29.117Z,25.36
2018-07-26T13:03:00.779Z,24.96
2018-07-26T13:05:30.688Z,22.86
2018-07-26T13:08:01.393Z,21.85
2018-07-26T13:10:31.398Z,20.86
2018-07-26T13:13:01.404Z,20.94
2018-07-26T13:15:33.041Z,25.29
2018-07-26T13:18:06.773Z,27.92
2018-07-26T13:20:38.614Z,26.82
2018-07-26T13:23:10.397Z,27.18
2018-07-26T13:25:53.232Z,27.51
2018-07-26T13:28:39.675Z,26.72
2018-07-26T13:31:10.247Z,26.88
2018-07-26T13:33:41.769Z,26.90
2018-07-26T13:36:11.677Z,26.92
2018-07-26T13:38:41.650Z,24.66
2018-07-26T13:41:21.289Z,26.34
2018-07-26T13:43:51.389Z,24.04
2018-07-26T13:46:21.439Z,24.65
2018-07-26T13:48:51.422Z,25.83
2018-07-26T13:51:22.470Z,26.09
2018-07-26T13:53:53.892Z,28.58
2018-07-26T13:56:24.087Z,29.71
2018-07-26T13:58:55.881Z,28.11
2018-07-26T14:01:26.085Z,26.23
2018-07-26T14:03:56.400Z,27.01
2018-07-26T14:06:26.330Z,25.20
2018-07-26T14:08:56.338Z,26.97
2018-07-26T14:11:27.998Z,25.32
2018-07-26T14:13:58.780Z,25.71
2018-07-26T14:16:28.961Z,26.75
2018-07-26T14:19:04.424Z,28.14
2018-07-26T14:21:35.052Z,28.24
2018-07-26T14:24:11.509Z,27.41
2018-07-26T14:26:41.512Z,26.50
2018-07-26T14:29:14.027Z,26.55
2018-07-26T14:31:44.731Z,25.79
2018-07-26T14:34:15.178Z,25.59
2018-07-26T14:36:47.426Z,26.96
2018-07-26T14:39:17.442Z,28.53
2018-07-26T14:41:47.483Z,29.03
2018-07-26T14:44:17.619Z,30.68
2018-07-26T14:46:47.597Z,29.53
2018-07-26T14:49:17.557Z,29.64
2018-07-26T14:51:47.592Z,30.33
2018-07-26T14:54:17.608Z,30.29
2018-07-26T14:56:47.567Z,29.57
2018-07-26T14:59:17.597Z,30.80
2018-07-26T15:01:47.634Z,29.52
2018-07-26T15:04:17.943Z,30.93
2018-07-26T15:06:47.874Z,30.79
2018-07-26T15:09:17.974Z,30.27
2018-07-26T15:11:48.216Z,28.81
2018-07-26T15:14:20.097Z,27.89
2018-07-26T15:16:54.233Z,27.64
2018-07-26T15:19:25.117Z,28.99
2018-07-26T15:21:58.070Z,29.15
2018-07-26T15:24:30.277Z,28.75
2018-07-26T15:27:00.256Z,28.95
2018-07-26T15:29:30.361Z,28.89
2018-07-26T15:32:00.502Z,30.43
2018-07-26T15:34:31.887Z,31.07
2018-07-26T15:37:03.639Z,30.95
2018-07-26T15:39:34.209Z,30.02
2018-07-26T15:42:04.249Z,29.50
2018-07-26T15:44:35.815Z,27.51
2018-07-26T15:47:07.456Z,28.71
2018-07-26T15:49:37.624Z,30.96
2018-07-26T15:52:15.392Z,31.59
2018-07-26T15:54:45.846Z,33.01
2018-07-26T15:57:15.838Z,33.65
2018-07-26T15:59:50.553Z,34.31
2018-07-26T16:02:29.538Z,35.83
2018-07-26T16:05:04.527Z,35.74
2018-07-26T16:07:37.182Z,37.09
2018-07-26T16:10:08.790Z,37.20
2018-07-26T16:12:40.939Z,37.43
2018-07-26T16:15:12.114Z,37.01
2018-07-26T16:17:42.617Z,38.49
2018-07-26T16:20:12.873Z,39.52
2018-07-26T16:22:43.326Z,39.70
2018-07-26T16:25:13.487Z,40.20
2018-07-26T16:27:45.532Z,41.37
2018-07-26T16:30:15.652Z,42.51
2018-07-26T16:32:47.901Z,52.48
2018-07-26T16:35:20.369Z,59.65
2018-07-26T16:37:50.303Z,63.75
2018-07-26T16:40:21.680Z,65.90
2018-07-26T16:42:51.729Z,69.78
2018-07-26T16:45:22.152Z,72.06
2018-07-26T16:47:52.421Z,71.06
2018-07-26T16:50:23.002Z,69.35
2018-07-26T16:52:53.088Z,67.97
2018-07-26T16:55:23.495Z,67.09
2018-07-26T16:57:53.570Z,63.82
2018-07-26T17:00:23.841Z,61.47
2018-07-26T17:02:53.853Z,62.17
2018-07-26T17:05:24.089Z,62.22
2018-07-26T17:07:54.135Z,63.57
2018-07-26T17:10:25.096Z,63.34
2018-07-26T17:12:55.157Z,62.84
2018-07-26T17:15:25.078Z,63.68
2018-07-26T17:17:56.073Z,60.77
2018-07-26T17:20:26.197Z,60.26
2018-07-26T17:22:56.280Z,60.30
2018-07-26T17:25:30.330Z,57.96
2018-07-26T17:28:00.961Z,57.80
2018-07-26T17:30:30.998Z,55.37
2018-07-26T17:33:01.100Z,56.69
2018-07-26T17:35:31.177Z,56.39
2018-07-26T17:38:01.179Z,57.48
2018-07-26T17:40:31.326Z,58.06
2018-07-26T17:43:14.201Z,58.07
2018-07-26T17:45:44.640Z,57.62
2018-07-26T17:48:15.576Z,57.52
2018-07-26T17:50:45.536Z,58.17
2018-07-26T17:53:15.602Z,58.27
2018-07-26T17:55:45.575Z,57.51
2018-07-26T17:58:15.809Z,57.44
2018-07-26T18:03:51.106Z,56.93
2018-07-26T18:06:21.929Z,58.09
2018-07-26T18:08:52.065Z,58.67
2018-07-26T18:11:33.977Z,58.74
2018-07-26T18:14:04.091Z,57.78
2018-07-26T18:16:34.133Z,60.03
2018-07-26T18:19:04.250Z,62.00
2018-07-26T18:21:34.229Z,62.80
2018-07-26T18:24:04.166Z,63.92
2018-07-26T18:26:34.230Z,64.88
2018-07-26T18:29:04.339Z,64.09
2018-07-26T18:31:34.941Z,64.69
2018-07-26T18:34:04.949Z,64.64
2018-07-26T18:36:35.048Z,63.83
2018-07-26T18:39:08.022Z,65.12
2018-07-26T18:47:37.914Z,64.10
2018-07-26T18:50:20.249Z,64.62
2018-07-26T18:52:50.371Z,65.06
2018-07-26T18:55:20.351Z,65.05
2018-07-26T18:57:50.388Z,64.41
2018-07-26T19:00:20.502Z,65.23
2018-07-26T19:02:50.496Z,64.72
2018-07-26T19:05:20.531Z,64.98
2018-07-26T19:07:50.738Z,63.49
2018-07-26T19:10:22.146Z,63.72
2018-07-26T19:12:54.032Z,64.85
2018-07-26T19:15:24.385Z,65.36
2018-07-26T19:17:54.867Z,65.61
2018-07-26T19:20:25.053Z,64.27
2018-07-26T19:22:55.404Z,63.85
2018-07-26T19:25:53.538Z,63.74
2018-07-26T19:28:27.968Z,64.36
2018-07-26T19:31:03.828Z,64.42
2018-07-26T19:33:33.977Z,64.69
2018-07-26T19:36:04.092Z,64.25
2018-07-26T19:42:31.768Z,63.27
2018-07-26T19:45:04.363Z,63.93
2018-07-26T19:47:38.245Z,63.93
2018-07-26T19:50:13.045Z,63.65
2018-07-26T19:52:47.226Z,64.39
2018-07-26T19:55:27.416Z,65.43
2018-07-26T19:57:58.114Z,64.96
2018-07-26T20:00:28.721Z,65.49
2018-07-26T20:02:59.938Z,65.31
2018-07-26T20:06:25.519Z,66.02
2018-07-26T20:08:59.685Z,66.50
2018-07-26T20:11:30.735Z,66.33
2018-07-26T20:14:03.707Z,66.77
2018-07-26T20:16:35.538Z,66.82
2018-07-26T20:19:07.005Z,67.27
2018-07-26T20:21:37.016Z,69.14
2018-07-26T20:27:34.522Z,69.30
2018-07-26T20:30:48.130Z,69.10
2018-07-26T20:33:58.405Z,69.37
2018-07-26T20:36:34.432Z,70.27
2018-07-26T20:39:20.863Z,69.54
2018-07-26T20:41:53.104Z,70.85
2018-07-26T20:44:23.558Z,71.02
2018-07-26T20:47:00.542Z,70.58
2018-07-26T20:49:30.989Z,72.06
2018-07-26T20:52:01.185Z,72.11
2018-07-26T20:54:31.736Z,71.72
2018-07-26T20:57:01.996Z,72.89
2018-07-26T20:59:35.882Z,72.86
2018-07-26T21:02:07.875Z,73.31
2018-07-26T21:04:38.357Z,73.77
2018-07-26T21:07:10.011Z,72.85
2018-07-26T21:09:41.305Z,72.46
2018-07-26T21:14:43.252Z,71.72
2018-07-26T21:17:16.037Z,73.30
2018-07-26T21:19:46.374Z,72.49
2018-07-26T21:25:22.268Z,72.74
2018-07-26T21:27:54.651Z,71.86
2018-07-26T21:30:28.278Z,73.85
2018-07-26T21:32:58.995Z,75.64
2018-07-26T21:35:31.102Z,77.55
2018-07-26T21:38:02.398Z,79.35
2018-07-26T21:40:32.879Z,81.04
2018-07-26T21:43:03.327Z,81.18
2018-07-26T21:45:33.577Z,80.42
2018-07-26T21:48:04.083Z,81.10
2018-07-26T21:50:34.354Z,81.75
2018-07-26T21:53:04.730Z,82.60
2018-07-26T21:55:35.109Z,82.19
2018-07-26T21:58:08.315Z,82.79
2018-07-26T22:00:56.482Z,83.67
2018-07-26T22:03:32.415Z,82.38
2018-07-26T22:06:07.885Z,81.96
2018-07-26T22:08:38.185Z,80.92
2018-07-26T22:11:08.907Z,80.77
2018-07-26T22:13:39.228Z,81.03
2018-07-26T22:16:10.228Z,81.15
2018-07-26T22:18:40.312Z,83.08
2018-07-26T22:21:10.930Z,84.17
2018-07-26T22:23:44.328Z,83.88
2018-07-26T22:26:16.900Z,83.04
2018-07-26T22:28:47.461Z,81.38
2018-07-26T22:31:18.763Z,82.03
2018-07-26T22:33:49.094Z,82.76
2018-07-26T22:36:19.367Z,82.27
2018-07-26T22:38:50.277Z,80.23
2018-07-26T22:41:32.322Z,79.25
2018-07-26T22:44:04.995Z,80.80
2018-07-26T22:46:35.367Z,81.58
2018-07-26T22:49:05.856Z,81.37
2018-07-26T22:51:36.425Z,81.23
2018-07-26T22:54:11.974Z,81.64
2018-07-26T22:56:47.640Z,82.77
2018-07-26T22:59:24.738Z,82.37
2018-07-26T23:02:00.678Z,82.85
2018-07-26T23:04:59.103Z,83.24
2018-07-26T23:07:35.305Z,83.88
2018-07-26T23:10:50.587Z,83.08
2018-07-26T23:13:27.504Z,82.63
2018-07-26T23:16:14.795Z,82.06
2018-07-26T23:18:45.028Z,81.12
2018-07-26T23:24:23.178Z,82.27
2018-07-26T23:26:53.297Z,83.38
2018-07-26T23:29:25.799Z,84.48
2018-07-26T23:32:14.553Z,85.80
2018-07-26T23:34:44.678Z,84.10
2018-07-26T23:37:14.882Z,85.48
2018-07-26T23:39:44.959Z,87.26
2018-07-26T23:42:15.104Z,88.68
2018-07-26T23:44:55.595Z,88.31
2018-07-26T23:47:25.785Z,89.68
2018-07-26T23:49:55.977Z,90.63
2018-07-26T23:52:26.062Z,91.12
2018-07-26T23:54:56.140Z,90.59
2018-07-26T23:57:27.086Z,90.75
2018-07-26T23:59:57.158Z,92.59
